Time;durP1;ratioP1;P1;durP2;ratioP2;P2;SDS_P1;SDS_P2;PMS_P1;PMS_P2;Temp;Humidity;BMP_temperature;BMP_pressure;BME280_temperature;BME280_humidity;BME280_pressure;Samples;Min_cycle;Max_cycle;Signal;HPM_P1;HPM_P2
2021/08/08 00:00:34;;;;;;;4.72;0.98;;;;;;;16.15;76.67;100146.03;5003639;28;20499;-74
2021/08/08 00:02:59;;;;;;;5.28;1.23;;;;;;;16.19;76.30;100154.25;4982932;28;20522;-74
2021/08/08 00:05:25;;;;;;;2.83;0.98;;;;;;;16.22;75.85;100156.47;4996417;28;20476;-73
2021/08/08 00:07:50;;;;;;;4.15;1.25;;;;;;;16.10;75.65;100150.28;5009389;28;20472;-73
2021/08/08 00:10:16;;;;;;;3.53;1.00;;;;;;;16.08;76.39;100153.09;4993131;28;20035;-73
2021/08/08 00:12:41;;;;;;;8.32;2.00;;;;;;;16.13;75.87;100155.88;4995856;28;20037;-72
2021/08/08 00:15:10;;;;;;;3.17;1.00;;;;;;;16.18;75.87;100157.06;4998505;28;20026;-72
2021/08/08 00:17:36;;;;;;;2.65;1.20;;;;;;;16.27;75.93;100154.00;5000838;28;20041;-73
2021/08/08 00:20:03;;;;;;;1.83;0.85;;;;;;;16.21;75.67;100149.63;5001545;28;20041;-72
2021/08/08 00:22:29;;;;;;;4.20;0.90;;;;;;;16.26;75.36;100157.66;5002673;28;20128;-73
2021/08/08 00:24:55;;;;;;;3.20;0.88;;;;;;;16.25;75.41;100158.66;4999524;28;20137;-73
2021/08/08 00:27:20;;;;;;;3.72;1.00;;;;;;;16.14;75.94;100165.34;4993047;28;20451;-74
2021/08/08 00:29:45;;;;;;;2.45;1.17;;;;;;;16.18;75.78;100157.06;5009711;28;20034;-74
2021/08/08 00:32:11;;;;;;;2.95;1.02;;;;;;;16.12;74.96;100166.56;4992239;28;20120;-73
2021/08/08 00:34:40;;;;;;;5.43;1.88;;;;;;;16.22;74.64;100160.88;4995820;28;20030;-72
2021/08/08 00:37:06;;;;;;;3.47;1.60;;;;;;;16.26;74.65;100165.50;5012525;28;20049;-72
2021/08/08 00:39:32;;;;;;;5.53;1.48;;;;;;;16.22;74.89;100168.72;4974268;28;20025;-74
2021/08/08 00:41:57;;;;;;;2.35;1.30;;;;;;;16.26;74.68;100172.53;5005190;28;20045;-72
2021/08/08 00:44:23;;;;;;;4.65;1.25;;;;;;;16.17;74.39;100165.94;4995428;28;20198;-72
2021/08/08 00:46:49;;;;;;;5.22;2.20;;;;;;;16.26;73.84;100162.88;4995642;28;20025;-74
2021/08/08 00:49:15;;;;;;;4.78;1.58;;;;;;;16.24;74.09;100166.72;4987229;28;20022;-74
2021/08/08 00:51:41;;;;;;;4.35;1.65;;;;;;;16.14;73.99;100170.59;4984001;28;20029;-71
2021/08/08 00:54:08;;;;;;;8.27;1.77;;;;;;;16.14;73.84;100167.97;5002053;28;20060;-71
2021/08/08 00:56:38;;;;;;;5.57;2.17;;;;;;;16.24;73.95;100171.97;4989916;28;20383;-72
2021/08/08 00:59:05;;;;;;;6.80;1.90;;;;;;;16.17;73.20;100171.97;4986702;28;20443;-73
2021/08/08 01:01:41;;;;;;;10.27;1.83;;;;;;;16.15;73.63;100169.56;4980809;28;20034;-71
2021/08/08 01:04:16;;;;;;;6.13;1.80;;;;;;;16.15;73.57;100174.00;4993061;28;20033;-72
2021/08/08 01:06:51;;;;;;;7.47;2.10;;;;;;;16.22;73.21;100168.72;4983688;28;20029;-72
2021/08/08 01:09:23;;;;;;;5.63;2.40;;;;;;;16.25;73.12;100170.94;5006283;28;20461;-71
2021/08/08 01:11:50;;;;;;;6.20;2.28;;;;;;;16.26;73.07;100169.94;4996013;28;20410;-71
2021/08/08 01:14:17;;;;;;;8.68;2.92;;;;;;;16.13;73.54;100170.78;4996035;28;20068;-71
2021/08/08 01:16:49;;;;;;;6.03;1.90;;;;;;;16.23;72.89;100181.59;4992008;28;20038;-72
2021/08/08 01:19:20;;;;;;;9.55;2.17;;;;;;;16.11;73.29;100173.59;5002937;28;21748;-70
2021/08/08 01:21:47;;;;;;;5.80;1.75;;;;;;;16.20;73.26;100186.44;4989784;28;20429;-70
2021/08/08 01:24:14;;;;;;;9.02;1.85;;;;;;;16.20;72.82;100182.03;4991463;28;20034;-73
2021/08/08 01:26:44;;;;;;;6.75;2.10;;;;;;;16.18;72.69;100186.66;4992909;28;20033;-72
2021/08/08 01:29:11;;;;;;;16.35;2.60;;;;;;;16.20;72.51;100194.28;4977341;28;20053;-70
2021/08/08 01:31:36;;;;;;;6.65;1.88;;;;;;;16.15;72.61;100203.56;4991458;28;20181;-72
2021/08/08 01:34:02;;;;;;;9.80;2.58;;;;;;;16.19;72.83;100200.53;5001681;28;20507;-71
2021/08/08 01:36:27;;;;;;;12.45;3.22;;;;;;;16.16;72.78;100199.13;5005772;28;20040;-70
2021/08/08 01:39:06;;;;;;;9.93;2.03;;;;;;;16.17;72.68;100207.78;4979367;28;20492;-73
2021/08/08 01:41:51;;;;;;;8.57;2.10;;;;;;;16.17;72.39;100210.41;4988163;28;20378;-71
2021/08/08 01:44:24;;;;;;;10.77;2.65;;;;;;;16.15;72.52;100211.41;4998350;28;20117;-70
2021/08/08 01:46:56;;;;;;;6.38;2.00;;;;;;;16.18;72.17;100212.00;4985391;28;20070;-73
2021/08/08 01:49:27;;;;;;;5.43;2.08;;;;;;;16.15;72.27;100213.22;4989952;28;20399;-72
2021/08/08 01:51:54;;;;;;;10.30;2.20;;;;;;;16.10;72.43;100208.59;4984551;28;20121;-71
2021/08/08 01:54:21;;;;;;;14.77;1.90;;;;;;;16.20;71.42;100215.19;4976248;28;20065;-72
2021/08/08 01:56:51;;;;;;;8.73;2.10;;;;;;;16.17;71.58;100218.25;4991306;28;20116;-72
2021/08/08 01:59:18;;;;;;;7.93;2.50;;;;;;;16.07;72.19;100219.50;5002662;28;20065;-72
2021/08/08 02:01:44;;;;;;;11.32;2.30;;;;;;;16.10;72.21;100221.66;4985940;28;20180;-72
2021/08/08 02:04:27;;;;;;;13.68;2.45;;;;;;;16.10;71.74;100220.88;4991738;28;20034;-73
2021/08/08 02:07:15;;;;;;;6.45;1.40;;;;;;;16.17;71.33;100226.09;4989562;28;20042;-72
2021/08/08 02:09:44;;;;;;;9.00;1.80;;;;;;;16.13;71.12;100221.28;4986390;28;20119;-70
2021/08/08 02:12:11;;;;;;;5.38;1.85;;;;;;;16.06;71.42;100223.09;4985798;28;20045;-72
2021/08/08 02:14:38;;;;;;;9.45;2.22;;;;;;;16.11;71.63;100232.97;4999686;28;20048;-71
2021/08/08 02:17:04;;;;;;;4.85;1.92;;;;;;;16.09;70.86;100225.31;4981007;28;20046;-73
2021/08/08 02:19:31;;;;;;;8.20;2.35;;;;;;;16.16;70.97;100230.50;5010903;28;20040;-72
2021/08/08 02:21:59;;;;;;;8.38;1.83;;;;;;;15.99;70.87;100231.97;4991222;28;20424;-71
2021/08/08 02:24:31;;;;;;;18.13;2.92;;;;;;;16.05;71.10;100242.44;4975226;28;20399;-70
2021/08/08 02:27:17;;;;;;;9.60;2.72;;;;;;;16.04;70.64;100235.56;4986742;28;20522;-72
2021/08/08 02:29:46;;;;;;;8.35;1.88;;;;;;;16.00;70.84;100249.28;5003209;28;20034;-71
2021/08/08 02:32:14;;;;;;;9.40;2.30;;;;;;;16.05;70.56;100246.84;4993986;28;20067;-71
2021/08/08 02:34:41;;;;;;;7.70;1.63;;;;;;;15.99;70.59;100253.69;4980570;28;20063;-71
2021/08/08 02:37:08;;;;;;;9.95;2.35;;;;;;;16.02;70.11;100247.25;4988713;28;20076;-74
2021/08/08 02:39:35;;;;;;;8.43;1.67;;;;;;;15.98;70.45;100261.75;5008936;28;20033;-71
2021/08/08 02:42:01;;;;;;;7.35;2.35;;;;;;;15.99;70.26;100251.06;4984393;28;20033;-72
2021/08/08 02:44:30;;;;;;;6.15;1.80;;;;;;;16.02;70.63;100255.09;5009270;28;20060;-71
2021/08/08 02:46:55;;;;;;;10.60;2.53;;;;;;;16.00;70.68;100264.97;4979945;28;20038;-70
2021/08/08 02:49:21;;;;;;;11.32;1.88;;;;;;;15.94;70.75;100250.91;4982550;28;20037;-73
2021/08/08 02:51:47;;;;;;;5.82;1.95;;;;;;;15.92;70.71;100260.75;4996842;28;20089;-71
2021/08/08 02:54:14;;;;;;;7.97;2.17;;;;;;;16.01;70.07;100262.16;4997618;28;20042;-73
2021/08/08 02:56:41;;;;;;;12.40;2.47;;;;;;;15.81;71.24;100269.22;4989888;28;20037;-72
2021/08/08 02:59:07;;;;;;;12.10;2.20;;;;;;;15.74;71.11;100258.75;4995991;28;20503;-72
2021/08/08 03:01:39;;;;;;;10.65;2.33;;;;;;;15.68;71.20;100277.84;4993692;28;20026;-72
2021/08/08 03:04:05;;;;;;;12.18;2.25;;;;;;;15.67;70.79;100263.16;4999981;28;20038;-72
2021/08/08 03:06:31;;;;;;;7.70;2.47;;;;;;;15.66;70.71;100274.63;4983143;28;20045;-71
2021/08/08 03:08:57;;;;;;;11.07;2.53;;;;;;;15.56;71.25;100268.00;4982153;28;21588;-72
2021/08/08 03:11:24;;;;;;;13.00;2.40;;;;;;;15.62;71.21;100274.22;5000868;28;20443;-72
2021/08/08 03:13:50;;;;;;;11.30;2.60;;;;;;;15.62;71.24;100273.44;4980525;28;20037;-74
2021/08/08 03:16:15;;;;;;;7.88;1.80;;;;;;;15.52;71.39;100279.03;4984363;28;20081;-71
2021/08/08 03:18:43;;;;;;;11.10;2.50;;;;;;;15.46;71.69;100285.88;5002203;28;20042;-73
2021/08/08 03:21:08;;;;;;;13.20;2.92;;;;;;;15.44;71.75;100289.69;5014292;28;20029;-71
2021/08/08 03:23:35;;;;;;;11.18;2.42;;;;;;;15.50;71.96;100292.31;5002236;28;20129;-72
2021/08/08 03:26:02;;;;;;;10.23;2.05;;;;;;;15.39;71.92;100290.31;4985681;28;20034;-72
2021/08/08 03:28:29;;;;;;;15.45;2.20;;;;;;;15.29;72.36;100293.28;4991145;28;20025;-70
2021/08/08 03:30:55;;;;;;;7.88;2.00;;;;;;;15.23;72.47;100301.94;4977096;28;20041;-74
2021/08/08 03:33:21;;;;;;;6.90;2.30;;;;;;;15.28;72.51;100304.75;4971995;28;20026;-72
2021/08/08 03:35:47;;;;;;;9.13;2.38;;;;;;;15.29;72.34;100314.19;4995222;28;20033;-73
2021/08/08 03:38:12;;;;;;;11.30;2.38;;;;;;;15.22;72.46;100307.34;4993473;28;20038;-72
2021/08/08 03:40:38;;;;;;;14.90;2.72;;;;;;;15.21;72.73;100318.81;5017689;28;20029;-70
2021/08/08 03:43:03;;;;;;;9.00;1.85;;;;;;;15.24;72.66;100321.00;4995824;28;20079;-72
2021/08/08 03:45:30;;;;;;;11.65;2.65;;;;;;;15.17;72.52;100323.63;5004838;28;20030;-69
2021/08/08 03:47:58;;;;;;;10.80;3.45;;;;;;;15.18;72.45;100320.00;4986098;28;20224;-72
2021/08/08 03:50:24;;;;;;;13.05;2.20;;;;;;;15.08;72.76;100328.19;4985550;28;20431;-71
2021/08/08 03:52:50;;;;;;;13.57;2.22;;;;;;;15.01;72.89;100335.22;4994706;28;20032;-70
2021/08/08 03:55:16;;;;;;;8.75;2.47;;;;;;;15.07;72.86;100338.84;4985565;28;20034;-72
2021/08/08 03:57:42;;;;;;;15.05;3.05;;;;;;;15.15;72.76;100336.88;4984100;28;20546;-71
2021/08/08 04:00:13;;;;;;;11.48;2.47;;;;;;;15.01;73.07;100340.44;4988618;28;20477;-71
2021/08/08 04:02:44;;;;;;;8.27;2.45;;;;;;;15.03;73.10;100350.69;4980837;28;20034;-72
2021/08/08 04:05:15;;;;;;;8.38;2.30;;;;;;;15.06;72.58;100347.69;4984537;28;20049;-70
2021/08/08 04:07:41;;;;;;;16.42;2.88;;;;;;;15.05;72.77;100356.50;5000473;28;20030;-72
2021/08/08 04:10:07;;;;;;;14.27;3.05;;;;;;;15.12;73.08;100352.91;4998045;28;20039;-72
2021/08/08 04:12:33;;;;;;;13.45;3.08;;;;;;;15.07;72.59;100357.13;5000037;28;20042;-71
2021/08/08 04:15:01;;;;;;;12.73;2.72;;;;;;;15.03;72.68;100367.16;4965582;28;20022;-72
2021/08/08 04:17:26;;;;;;;11.65;2.30;;;;;;;14.99;72.69;100360.72;5000503;28;20041;-72
2021/08/08 04:19:52;;;;;;;10.65;2.88;;;;;;;14.92;72.65;100359.91;4992733;28;20029;-73
2021/08/08 04:22:17;;;;;;;15.60;2.85;;;;;;;14.90;73.34;100369.69;4995299;28;20084;-73
2021/08/08 04:24:45;;;;;;;12.63;2.28;;;;;;;14.83;73.60;100368.91;4998992;28;20645;-72
2021/08/08 04:27:13;;;;;;;8.48;2.63;;;;;;;15.04;73.13;100376.59;4980546;28;20327;-71
2021/08/08 04:29:39;;;;;;;11.93;2.90;;;;;;;14.88;73.34;100380.38;4990773;28;20400;-72
2021/08/08 04:32:05;;;;;;;13.20;3.10;;;;;;;14.99;72.77;100382.41;4982913;28;20068;-70
2021/08/08 04:34:31;;;;;;;13.90;2.78;;;;;;;14.96;73.02;100382.00;4985949;28;20119;-72
2021/08/08 04:37:01;;;;;;;16.50;2.58;;;;;;;14.86;73.46;100384.97;4983013;28;20075;-71
2021/08/08 04:39:27;;;;;;;18.67;3.80;;;;;;;14.92;73.54;100381.59;4977924;28;20030;-71
2021/08/08 04:41:53;;;;;;;11.77;2.75;;;;;;;14.91;73.24;100392.22;4987244;28;20045;-71
2021/08/08 04:44:20;;;;;;;11.75;3.08;;;;;;;14.82;73.49;100388.94;4982547;28;20038;-71
2021/08/08 04:46:47;;;;;;;17.98;3.20;;;;;;;14.89;73.44;100387.19;4986391;28;20033;-73
2021/08/08 04:49:13;;;;;;;8.55;2.50;;;;;;;14.88;73.84;100392.59;4972317;28;20034;-72
2021/08/08 04:51:38;;;;;;;20.42;3.40;;;;;;;14.97;73.72;100394.88;4963586;28;20038;-70
2021/08/08 04:54:04;;;;;;;12.15;2.45;;;;;;;14.94;73.46;100397.84;4978633;28;20042;-73
2021/08/08 04:56:30;;;;;;;14.00;2.35;;;;;;;15.11;73.29;100402.75;4984728;28;20053;-71
2021/08/08 04:58:56;;;;;;;12.30;2.83;;;;;;;15.21;72.97;100403.19;4964754;28;20476;-71
2021/08/08 05:01:21;;;;;;;12.70;2.30;;;;;;;15.16;72.77;100406.38;5001264;28;20030;-72
2021/08/08 05:03:47;;;;;;;16.98;2.92;;;;;;;15.16;72.81;100408.16;5007369;28;20037;-73
2021/08/08 05:06:12;;;;;;;14.65;3.13;;;;;;;15.15;73.13;100411.78;4972733;28;20026;-73
2021/08/08 05:08:38;;;;;;;8.70;2.78;;;;;;;15.12;73.33;100402.53;4999178;28;20033;-72
2021/08/08 05:11:04;;;;;;;12.40;2.75;;;;;;;15.25;73.32;100408.81;4989903;28;20042;-71
2021/08/08 05:13:30;;;;;;;19.50;3.22;;;;;;;15.23;72.55;100416.84;4997928;28;20045;-72
2021/08/08 05:15:58;;;;;;;18.83;2.63;;;;;;;15.38;72.52;100419.31;5001530;28;20787;-71
2021/08/08 05:18:24;;;;;;;12.20;3.42;;;;;;;15.33;71.93;100419.91;4983846;28;20177;-71
2021/08/08 05:20:51;;;;;;;7.45;2.67;;;;;;;15.38;72.33;100425.31;4983299;28;20030;-72
2021/08/08 05:23:16;;;;;;;20.63;3.45;;;;;;;15.24;72.76;100426.31;4981913;28;20033;-72
2021/08/08 05:25:42;;;;;;;11.60;2.95;;;;;;;15.25;72.94;100434.94;4977208;28;20035;-73
2021/08/08 05:28:07;;;;;;;9.60;2.72;;;;;;;15.24;72.79;100441.13;4988527;28;20459;-74
2021/08/08 05:30:33;;;;;;;14.48;2.05;;;;;;;15.26;72.61;100426.09;4986015;28;20038;-72
2021/08/08 05:32:59;;;;;;;12.57;2.45;;;;;;;15.32;71.86;100438.38;4980778;28;20033;-71
2021/08/08 05:35:25;;;;;;;9.50;2.58;;;;;;;15.41;72.32;100446.81;5004613;28;20026;-71
2021/08/08 05:37:50;;;;;;;11.30;2.40;;;;;;;15.31;72.36;100455.88;4981744;28;20040;-71
2021/08/08 05:40:16;;;;;;;9.15;2.40;;;;;;;15.47;72.06;100454.69;4999915;28;20033;-70
2021/08/08 05:42:47;;;;;;;15.90;2.25;;;;;;;15.45;72.10;100455.91;4994660;28;20395;-71
2021/08/08 05:45:13;;;;;;;10.77;2.47;;;;;;;15.54;71.68;100454.72;4985038;28;20499;-71
2021/08/08 05:47:38;;;;;;;11.07;3.00;;;;;;;15.51;71.53;100455.13;4992696;28;20029;-73
2021/08/08 05:50:04;;;;;;;15.63;2.85;;;;;;;15.53;71.61;100453.91;4971484;28;20258;-72
2021/08/08 05:52:30;;;;;;;11.75;2.72;;;;;;;15.52;72.04;100465.38;5014608;28;20038;-73
2021/08/08 05:54:55;;;;;;;12.98;2.72;;;;;;;15.46;71.57;100471.38;4986364;28;20487;-71
2021/08/08 05:57:22;;;;;;;18.25;3.08;;;;;;;15.48;71.54;100469.38;4984863;28;20070;-71
2021/08/08 05:59:48;;;;;;;13.43;2.25;;;;;;;15.55;71.36;100475.41;4983582;28;20519;-73
2021/08/08 06:02:13;;;;;;;12.10;2.25;;;;;;;15.46;71.72;100486.25;4987865;28;20042;-70
2021/08/08 06:04:39;;;;;;;12.52;2.58;;;;;;;15.45;71.59;100485.44;4993131;28;20029;-71
2021/08/08 06:07:05;;;;;;;13.07;2.00;;;;;;;15.47;71.37;100485.25;5006217;28;20500;-72
2021/08/08 06:09:30;;;;;;;15.80;2.97;;;;;;;15.44;71.86;100485.63;4998553;28;20033;-72
2021/08/08 06:11:55;;;;;;;9.43;2.17;;;;;;;15.47;72.19;100487.88;5002018;28;20048;-72
2021/08/08 06:14:21;;;;;;;9.63;2.63;;;;;;;15.58;71.42;100498.56;4971273;28;20030;-72
2021/08/08 06:16:46;;;;;;;11.60;2.35;;;;;;;15.57;71.65;100493.50;4989651;28;20029;-73
2021/08/08 06:19:12;;;;;;;12.23;2.58;;;;;;;15.55;71.98;100509.38;4997423;28;20037;-74
2021/08/08 06:21:38;;;;;;;12.38;2.55;;;;;;;15.63;71.19;100513.63;4994879;28;20480;-72
2021/08/08 06:24:04;;;;;;;9.70;2.67;;;;;;;15.60;71.25;100508.03;4987305;28;20042;-73
2021/08/08 06:26:30;;;;;;;8.88;2.20;;;;;;;15.63;71.46;100515.44;4964207;28;20081;-72
2021/08/08 06:28:57;;;;;;;7.72;2.35;;;;;;;15.72;70.82;100511.66;4998723;28;20459;-73
2021/08/08 06:31:23;;;;;;;11.02;2.45;;;;;;;15.82;71.02;100511.31;4999781;28;20073;-73
2021/08/08 06:33:50;;;;;;;8.82;2.65;;;;;;;15.88;70.02;100519.19;5007628;28;20037;-73
2021/08/08 06:36:15;;;;;;;13.07;3.92;;;;;;;15.95;70.05;100521.78;4995749;28;20036;-71
2021/08/08 06:38:41;;;;;;;8.90;3.03;;;;;;;15.91;70.40;100518.75;5016591;28;20029;-73
2021/08/08 06:41:06;;;;;;;10.50;2.58;;;;;;;15.94;69.87;100523.63;4989579;28;20039;-73
2021/08/08 06:43:32;;;;;;;14.15;2.63;;;;;;;15.95;69.89;100522.63;5003741;28;20033;-73
2021/08/08 06:45:58;;;;;;;12.18;3.35;;;;;;;15.88;69.45;100534.03;4995498;28;20509;-73
2021/08/08 06:48:23;;;;;;;13.20;2.33;;;;;;;15.96;69.96;100521.59;5016228;28;20029;-71
2021/08/08 06:50:49;;;;;;;10.98;1.90;;;;;;;16.03;69.64;100539.94;4980927;28;20897;-72
2021/08/08 06:53:15;;;;;;;14.85;4.10;;;;;;;16.08;69.34;100540.13;5015910;28;20048;-73
2021/08/08 06:55:40;;;;;;;9.27;2.40;;;;;;;16.04;69.95;100549.38;4989738;28;20014;-73
2021/08/08 06:58:07;;;;;;;8.38;2.38;;;;;;;16.18;69.27;100547.63;4987185;28;20510;-72
2021/08/08 07:00:32;;;;;;;14.27;2.63;;;;;;;16.15;69.33;100561.06;4993775;28;20034;-71
2021/08/08 07:02:58;;;;;;;12.02;2.40;;;;;;;16.20;69.06;100561.28;4973696;28;20034;-71
2021/08/08 07:05:24;;;;;;;14.00;2.60;;;;;;;16.28;68.90;100552.44;4984980;28;20583;-71
2021/08/08 07:07:51;;;;;;;14.35;3.65;;;;;;;16.35;69.93;100556.69;4992708;28;20395;-71
2021/08/08 07:10:17;;;;;;;10.27;2.47;;;;;;;16.53;69.30;100558.69;4972639;28;20518;-71
2021/08/08 07:12:43;;;;;;;11.25;2.35;;;;;;;16.62;66.91;100559.31;5000786;28;20034;-72
2021/08/08 07:15:09;;;;;;;12.60;2.30;;;;;;;16.53;66.81;100563.13;4987234;28;20045;-70
2021/08/08 07:17:36;;;;;;;11.38;2.20;;;;;;;16.57;66.63;100574.81;4984181;28;20149;-73
2021/08/08 07:20:04;;;;;;;11.88;2.05;;;;;;;16.61;66.62;100575.22;4991334;28;20536;-73
2021/08/08 07:22:30;;;;;;;10.50;2.30;;;;;;;16.51;66.82;100567.75;4989234;28;20647;-72
2021/08/08 07:24:56;;;;;;;16.40;4.05;;;;;;;16.68;66.88;100573.41;4969305;28;20112;-73
2021/08/08 07:27:21;;;;;;;11.18;2.50;;;;;;;17.50;65.46;100564.22;4991128;28;20021;-72
2021/08/08 07:29:47;;;;;;;11.77;2.33;;;;;;;18.19;62.03;100574.19;4981595;28;20037;-71
2021/08/08 07:32:14;;;;;;;11.65;3.53;;;;;;;18.09;60.69;100559.72;4995149;28;20422;-71
2021/08/08 07:34:40;;;;;;;15.18;2.95;;;;;;;18.36;59.39;100566.63;4991678;28;20030;-70
2021/08/08 07:37:05;;;;;;;11.40;1.92;;;;;;;18.26;59.78;100561.84;4990313;28;20402;-72
2021/08/08 07:39:34;;;;;;;7.95;2.85;;;;;;;19.13;58.78;100566.41;4980242;28;20034;-71
2021/08/08 07:42:00;;;;;;;12.82;2.28;;;;;;;19.34;56.49;100568.56;4982373;28;20030;-71
2021/08/08 07:44:26;;;;;;;9.13;1.90;;;;;;;19.86;56.24;100572.66;4962840;28;20502;-72
2021/08/08 07:46:52;;;;;;;13.43;2.30;;;;;;;19.56;54.75;100576.03;4968446;28;20113;-72
2021/08/08 07:49:19;;;;;;;9.18;2.40;;;;;;;19.34;55.87;100575.66;4992130;28;20029;-74
2021/08/08 07:51:45;;;;;;;12.57;1.85;;;;;;;18.96;56.75;100585.34;4987674;28;20045;-74
2021/08/08 07:54:13;;;;;;;12.68;3.83;;;;;;;19.32;55.57;100589.03;4999476;28;20045;-71
2021/08/08 07:56:39;;;;;;;13.05;2.70;;;;;;;19.42;55.66;100589.34;4974848;28;20053;-72
2021/08/08 07:59:06;;;;;;;16.88;2.92;;;;;;;19.53;54.59;100587.78;4993922;28;20062;-71
2021/08/08 08:01:32;;;;;;;12.18;2.92;;;;;;;19.78;54.71;100590.34;5010741;28;20030;-73
2021/08/08 08:03:58;;;;;;;23.42;3.70;;;;;;;20.46;54.49;100596.28;4985686;28;20049;-71
2021/08/08 08:06:24;;;;;;;10.32;2.20;;;;;;;20.89;51.87;100589.13;4962925;28;20034;-72
2021/08/08 08:08:50;;;;;;;11.02;3.10;;;;;;;20.18;53.21;100602.16;4985923;28;20014;-73
2021/08/08 08:11:17;;;;;;;5.78;1.58;;;;;;;19.99;55.06;100604.06;4997740;28;20091;-72
2021/08/08 08:13:43;;;;;;;10.38;2.40;;;;;;;19.67;56.11;100611.31;4973916;28;20403;-74
2021/08/08 08:16:09;;;;;;;8.70;2.65;;;;;;;19.50;55.37;100616.34;4985815;28;20076;-72
2021/08/08 08:18:35;;;;;;;11.73;2.10;;;;;;;19.32;56.90;100617.13;5007480;28;20057;-73
2021/08/08 08:21:00;;;;;;;14.82;2.17;;;;;;;19.35;57.71;100627.22;4990920;28;20041;-74
2021/08/08 08:23:26;;;;;;;11.27;2.13;;;;;;;19.45;57.36;100627.50;5009914;28;20026;-72
2021/08/08 08:25:51;;;;;;;15.65;2.45;;;;;;;19.44;57.21;100631.19;5022826;28;20407;-74
2021/08/08 08:28:18;;;;;;;12.15;2.40;;;;;;;19.16;56.25;100626.41;5008210;28;20045;-74
2021/08/08 08:30:43;;;;;;;14.52;2.42;;;;;;;19.08;54.87;100630.13;4993040;28;20022;-74
2021/08/08 08:33:09;;;;;;;12.05;3.05;;;;;;;18.99;56.17;100632.22;4975221;28;20121;-70
2021/08/08 08:35:35;;;;;;;20.67;2.88;;;;;;;19.40;55.10;100630.81;4982590;28;20030;-72
2021/08/08 08:38:00;;;;;;;11.23;2.15;;;;;;;19.83;53.72;100634.38;4986961;28;20384;-71
2021/08/08 08:40:26;;;;;;;9.48;2.10;;;;;;;19.99;53.26;100635.63;4979399;28;20041;-74
2021/08/08 08:42:59;;;;;;;11.73;3.28;;;;;;;20.12;53.46;100626.75;5007098;28;20026;-74
2021/08/08 08:45:25;;;;;;;;;;;;;;;20.06;54.66;100631.09;5009248;28;20469;-72
2021/08/08 08:47:51;;;;;;;9.65;2.65;;;;;;;20.36;53.49;100636.34;5007444;28;19916;-73
2021/08/08 08:50:18;;;;;;;10.57;2.42;;;;;;;20.20;53.95;100635.13;4983850;28;20403;-74
2021/08/08 08:52:45;;;;;;;10.75;2.60;;;;;;;20.29;54.08;100640.88;5004247;28;20127;-73
2021/08/08 08:55:11;;;;;;;8.98;2.88;;;;;;;20.64;53.60;100647.31;4997595;28;20440;-73
2021/08/08 08:57:39;;;;;;;13.50;2.92;;;;;;;21.01;51.88;100640.00;5003259;28;20026;-75
2021/08/08 09:00:07;;;;;;;15.95;2.17;;;;;;;20.58;52.91;100647.13;4983041;28;20037;-74
2021/08/08 09:02:35;;;;;;;17.00;2.13;;;;;;;20.67;53.21;100646.84;4984414;28;20120;-75
2021/08/08 09:05:02;;;;;;;10.73;2.50;;;;;;;20.64;52.21;100655.19;4998452;28;20555;-74
2021/08/08 09:07:28;;;;;;;12.45;2.78;;;;;;;19.69;54.64;100649.50;4973994;28;20065;-73
2021/08/08 09:09:56;;;;;;;14.85;2.70;;;;;;;19.30;53.61;100662.03;4988514;28;20349;-73
2021/08/08 09:12:26;;;;;;;13.50;3.08;;;;;;;19.20;55.92;100662.53;5020307;28;20487;-72
2021/08/08 09:14:58;;;;;;;13.68;2.88;;;;;;;19.20;56.00;100661.75;4975264;28;20125;-73
2021/08/08 09:17:25;;;;;;;7.45;2.00;;;;;;;19.17;55.24;100672.69;4989987;28;20037;-72
2021/08/08 09:20:02;;;;;;;16.95;2.15;;;;;;;19.48;54.47;100665.69;5006397;28;20029;-73
2021/08/08 09:22:29;;;;;;;7.65;2.15;;;;;;;20.14;54.47;100664.97;4991920;28;20037;-75
2021/08/08 09:24:56;;;;;;;14.38;2.88;;;;;;;20.73;53.86;100652.00;4974461;28;20037;-73
2021/08/08 09:27:36;;;;;;;8.07;2.45;;;;;;;21.33;51.38;100653.63;4989017;28;20072;-74
2021/08/08 09:30:05;;;;;;;7.38;1.88;;;;;;;21.20;51.03;100659.16;4991575;28;20136;-73
2021/08/08 09:32:33;;;;;;;15.20;2.88;;;;;;;21.02;51.23;100678.53;4994168;28;20121;-73
2021/08/08 09:35:05;;;;;;;13.55;1.80;;;;;;;20.90;51.28;100678.50;4972143;28;20058;-74
2021/08/08 09:37:31;;;;;;;7.78;1.95;;;;;;;20.55;51.01;100684.47;4995256;28;20476;-74
2021/08/08 09:39:56;;;;;;;8.00;1.52;;;;;;;20.37;53.37;100674.00;4998439;28;20106;-72
2021/08/08 09:42:29;;;;;;;17.83;2.67;;;;;;;20.20;52.96;100679.09;4992078;28;20030;-74
2021/08/08 09:45:01;;;;;;;11.53;2.77;;;;;;;20.15;54.85;100687.63;4972840;28;20033;-73
2021/08/08 09:47:35;;;;;;;10.68;2.80;;;;;;;19.81;53.79;100683.78;5002284;28;20032;-75
2021/08/08 09:50:04;;;;;;;12.02;2.25;;;;;;;19.93;53.79;100683.84;5003000;28;20030;-73
2021/08/08 09:52:33;;;;;;;15.57;2.45;;;;;;;19.52;54.22;100688.72;4990524;28;20048;-73
2021/08/08 09:54:59;;;;;;;11.13;2.03;;;;;;;19.62;54.45;100707.44;4992851;28;20547;-74
2021/08/08 09:57:25;;;;;;;10.40;2.30;;;;;;;19.63;54.18;100706.41;5000646;28;20038;-74
2021/08/08 09:59:52;;;;;;;11.50;1.83;;;;;;;19.71;50.94;100697.44;4993149;28;20036;-74
2021/08/08 10:02:20;;;;;;;12.13;2.50;;;;;;;20.01;52.78;100702.00;4989670;28;20037;-72
2021/08/08 10:04:48;;;;;;;8.93;2.08;;;;;;;19.97;54.66;100703.47;4995759;28;20037;-76
2021/08/08 10:07:18;;;;;;;5.80;2.28;;;;;;;20.13;53.10;100704.69;5002029;28;20449;-73
2021/08/08 10:09:44;;;;;;;10.65;2.55;;;;;;;20.34;52.04;100706.03;4990990;28;20069;-75
2021/08/08 10:12:26;;;;;;;10.52;2.40;;;;;;;20.40;52.61;100716.47;5001809;28;20077;-74
2021/08/08 10:14:54;;;;;;;11.38;2.95;;;;;;;20.25;52.65;100710.81;5000659;28;20072;-73
2021/08/08 10:17:20;;;;;;;5.88;1.90;;;;;;;20.14;53.53;100719.47;4999616;28;20018;-74
2021/08/08 10:19:50;;;;;;;8.05;2.08;;;;;;;19.84;52.02;100705.22;4978550;28;20041;-74
2021/08/08 10:22:18;;;;;;;5.18;1.85;;;;;;;19.74;54.20;100717.25;5006620;28;20491;-73
2021/08/08 10:24:46;;;;;;;8.20;1.55;;;;;;;19.47;53.59;100720.13;4990649;28;20032;-74
2021/08/08 10:27:12;;;;;;;10.27;2.20;;;;;;;19.19;54.76;100716.13;5010107;28;20503;-74
2021/08/08 10:29:39;;;;;;;9.52;2.00;;;;;;;19.50;54.89;100719.69;5006831;28;20030;-74
2021/08/08 10:32:05;;;;;;;9.82;1.92;;;;;;;19.69;53.50;100717.88;4990399;28;20033;-75
2021/08/08 10:34:31;;;;;;;8.38;2.10;;;;;;;20.00;54.06;100716.97;5001895;28;20032;-73
2021/08/08 10:37:15;;;;;;;12.40;1.88;;;;;;;19.94;52.23;100720.47;5010682;28;20037;-74
2021/08/08 10:39:48;;;;;;;7.75;1.80;;;;;;;20.00;53.44;100724.88;4983214;28;20038;-72
2021/08/08 10:42:13;;;;;;;10.43;1.67;;;;;;;19.81;53.14;100718.78;4993451;28;20297;-72
2021/08/08 10:44:49;;;;;;;10.75;1.58;;;;;;;19.67;53.64;100719.13;5008166;28;20026;-73
2021/08/08 10:47:28;;;;;;;11.77;2.00;;;;;;;19.59;52.52;100715.78;4985847;28;20418;-72
2021/08/08 10:49:55;;;;;;;7.38;1.40;;;;;;;19.77;54.00;100717.63;4987086;28;20096;-74
2021/08/08 10:52:20;;;;;;;10.40;1.70;;;;;;;19.79;53.20;100715.56;5004662;28;20195;-72
2021/08/08 10:54:49;;;;;;;6.25;2.00;;;;;;;19.65;53.21;100714.88;4987685;28;20117;-73
2021/08/08 10:57:16;;;;;;;12.98;4.20;;;;;;;19.70;53.42;100721.31;5000290;28;20124;-73
2021/08/08 10:59:44;;;;;;;17.52;6.03;;;;;;;19.63;54.66;100716.94;5009000;28;20038;-74
2021/08/08 11:02:14;;;;;;;9.93;3.30;;;;;;;19.71;53.66;100722.94;5002090;28;20029;-72
2021/08/08 11:04:40;;;;;;;6.53;1.70;;;;;;;19.88;53.45;100721.34;5004786;28;20026;-74
2021/08/08 11:07:07;;;;;;;8.63;1.95;;;;;;;19.91;52.43;100714.84;5011215;28;20057;-73
2021/08/08 11:09:35;;;;;;;14.73;2.38;;;;;;;19.80;54.37;100724.28;5003169;28;20037;-73
2021/08/08 11:12:01;;;;;;;7.00;1.83;;;;;;;19.60;55.99;100717.34;4999418;28;20038;-74
2021/08/08 11:14:26;;;;;;;6.55;1.50;;;;;;;19.34;56.09;100725.50;4996731;28;20044;-73
2021/08/08 11:17:00;;;;;;;8.38;1.88;;;;;;;19.17;56.66;100728.66;4998527;28;20076;-73
2021/08/08 11:19:36;;;;;;;9.15;1.88;;;;;;;19.62;55.30;100727.66;4990597;28;20038;-73
2021/08/08 11:22:06;;;;;;;8.80;2.25;;;;;;;20.00;56.08;100724.06;4991596;28;20073;-75